Terminal Aerodrome Forecast
Issued by NWS State College, PA

Home | Current Version | Previous Version | Text Only | Print | Product List | Glossary On
Versions: 1 2 3 4 5 6 7 8 9 10 11 12 13 14 15 16 17 18 19 20 21 22 23 24
000
FTUS41 KCTP 301738
TAFIPT
TAF
KIPT 301738Z 3018/0118 07005KT P6SM OVC040
     FM301900 09005KT P6SM OVC035
     FM010300 09005KT 6SM -RA OVC035
     FM010500 10010KT 4SM -RA BR BKN009 OVC015
     FM010900 11009KT 3SM -RA BR OVC004=

USA.gov is the U.S. government's official web portal to all federal, state and local government web resources and services.